createdAt,value
2017-11-15T00:02:04.303Z,0.83
2017-11-15T00:04:40.336Z,0.90
2017-11-15T00:07:15.633Z,0.83
2017-11-15T00:09:50.485Z,1.03
2017-11-15T00:12:29.306Z,1.00
2017-11-15T00:15:01.718Z,0.70
2017-11-15T00:17:33.487Z,0.87
2017-11-15T00:20:09.918Z,1.00
2017-11-15T00:22:48.643Z,0.90
2017-11-15T00:25:24.100Z,1.20
2017-11-15T00:27:58.043Z,0.80
2017-11-15T00:30:34.326Z,1.00
2017-11-15T00:33:08.406Z,0.80
2017-11-15T00:35:40.142Z,0.80
2017-11-15T00:38:13.280Z,0.80
2017-11-15T00:40:44.743Z,1.00
2017-11-15T00:43:16.083Z,0.93
2017-11-15T00:45:47.991Z,0.97
2017-11-15T00:48:19.832Z,0.80
2017-11-15T00:50:51.892Z,0.80
2017-11-15T00:53:23.936Z,0.73
2017-11-15T00:55:58.937Z,0.90
2017-11-15T00:58:31.805Z,0.80
2017-11-15T01:01:04.410Z,1.00
2017-11-15T01:03:36.251Z,0.90
2017-11-15T01:06:10.150Z,0.80
2017-11-15T01:08:42.178Z,0.80
2017-11-15T01:11:19.245Z,1.10
2017-11-15T01:13:51.573Z,0.90
2017-11-15T01:16:23.835Z,0.83
2017-11-15T01:18:55.287Z,0.83
2017-11-15T01:21:26.800Z,0.97
2017-11-15T01:23:58.269Z,0.90
2017-11-15T01:26:29.834Z,0.87
2017-11-15T01:29:01.512Z,0.80
2017-11-15T01:31:33.443Z,0.90
2017-11-15T01:34:04.867Z,0.70
2017-11-15T01:36:36.583Z,0.80
2017-11-15T01:39:08.627Z,0.80
2017-11-15T01:41:39.546Z,0.80
2017-11-15T01:44:11.699Z,1.00
2017-11-15T01:46:43.378Z,1.17
2017-11-15T01:49:15.561Z,0.70
2017-11-15T01:51:47.522Z,1.10
2017-11-15T01:54:19.665Z,0.80
2017-11-15T01:56:51.460Z,1.03
2017-11-15T01:59:36.873Z,0.73
2017-11-15T02:02:08.569Z,0.90
2017-11-15T02:04:40.645Z,1.00
2017-11-15T02:07:12.440Z,0.90
2017-11-15T02:09:44.699Z,0.83
2017-11-15T02:12:16.029Z,1.10
2017-11-15T02:14:49.023Z,0.73
2017-11-15T02:17:22.392Z,0.90
2017-11-15T02:19:54.188Z,0.90
2017-11-15T02:22:25.592Z,0.90
2017-11-15T02:24:58.346Z,0.97
2017-11-15T02:27:30.678Z,0.90
2017-11-15T02:30:03.535Z,1.00
2017-11-15T02:32:36.838Z,0.70
2017-11-15T02:35:09.300Z,0.90
2017-11-15T02:37:40.986Z,0.90
2017-11-15T02:40:14.095Z,0.90
2017-11-15T02:42:47.384Z,0.90
2017-11-15T02:45:19.593Z,0.77
2017-11-15T02:47:51.255Z,0.70
2017-11-15T02:50:23.087Z,0.90
2017-11-15T02:52:55.493Z,0.90
2017-11-15T02:55:28.595Z,0.80
2017-11-15T02:58:02.558Z,0.90
2017-11-15T03:00:36.693Z,0.97
2017-11-15T03:03:08.021Z,1.00
2017-11-15T03:05:39.643Z,1.00
2017-11-15T03:08:11.555Z,0.90
2017-11-15T03:10:44.738Z,0.70
2017-11-15T03:13:16.489Z,0.90
2017-11-15T03:15:48.209Z,0.80
2017-11-15T03:18:20.721Z,0.80
2017-11-15T03:20:54.520Z,0.80
2017-11-15T03:23:26.129Z,0.70
2017-11-15T03:25:58.010Z,0.87
2017-11-15T03:28:29.322Z,0.80
2017-11-15T03:31:00.773Z,0.77
2017-11-15T03:33:32.607Z,0.90
2017-11-15T03:36:04.421Z,0.70
2017-11-15T03:38:35.805Z,0.70
2017-11-15T03:41:07.928Z,1.00
2017-11-15T03:43:39.457Z,0.70
2017-11-15T03:46:11.076Z,0.97
2017-11-15T03:48:42.467Z,0.80
2017-11-15T03:51:15.442Z,0.90
2017-11-15T03:53:46.940Z,0.80
2017-11-15T03:56:18.542Z,0.80
2017-11-15T03:58:52.240Z,1.17
2017-11-15T04:01:24.215Z,0.90
2017-11-15T04:03:55.639Z,0.80
2017-11-15T04:06:27.379Z,0.90
2017-11-15T04:08:59.767Z,0.90
2017-11-15T04:11:31.764Z,0.90
2017-11-15T04:14:03.517Z,0.73
2017-11-15T04:16:35.551Z,0.90
2017-11-15T04:19:07.132Z,0.80
2017-11-15T04:21:38.733Z,0.80
2017-11-15T04:24:11.761Z,0.90
2017-11-15T04:26:43.574Z,0.80
2017-11-15T04:29:15.302Z,0.77
2017-11-15T04:31:47.127Z,0.80
2017-11-15T04:34:19.361Z,0.70
2017-11-15T04:36:51.018Z,0.90
2017-11-15T04:39:22.701Z,0.90
2017-11-15T04:41:54.357Z,0.80
2017-11-15T04:44:26.127Z,0.87
2017-11-15T04:46:57.797Z,1.03
2017-11-15T04:49:30.740Z,0.80
2017-11-15T04:52:02.800Z,0.80
2017-11-15T04:54:34.673Z,0.80
2017-11-15T04:57:06.300Z,0.90
2017-11-15T04:59:38.404Z,0.83
2017-11-15T05:02:09.872Z,0.90
2017-11-15T05:04:41.554Z,0.90
2017-11-15T05:07:13.402Z,0.93
2017-11-15T05:09:45.121Z,0.90
2017-11-15T05:12:16.541Z,0.80
2017-11-15T05:14:48.039Z,0.80
2017-11-15T05:17:19.931Z,0.80
2017-11-15T05:19:52.024Z,0.93
2017-11-15T05:22:24.189Z,0.97
2017-11-15T05:24:56.061Z,0.97
2017-11-15T05:27:27.714Z,0.83
2017-11-15T05:30:00.010Z,0.80
2017-11-15T05:32:31.585Z,0.90
2017-11-15T05:35:03.442Z,0.90
2017-11-15T05:37:35.221Z,0.90
2017-11-15T05:40:07.692Z,0.80
2017-11-15T05:42:39.777Z,0.80
2017-11-15T05:45:11.685Z,1.00
2017-11-15T05:47:43.003Z,0.80
2017-11-15T05:50:14.822Z,0.70
2017-11-15T05:52:46.441Z,0.77
2017-11-15T05:55:18.623Z,0.80
2017-11-15T05:57:50.593Z,0.87
2017-11-15T06:00:22.502Z,0.90
2017-11-15T06:02:54.837Z,0.70
2017-11-15T06:05:26.291Z,0.77
2017-11-15T06:07:58.874Z,0.70
2017-11-15T06:10:32.855Z,0.97
2017-11-15T06:13:06.048Z,0.80
2017-11-15T06:15:39.256Z,0.93
2017-11-15T06:18:11.169Z,0.80
2017-11-15T06:20:42.812Z,0.80
2017-11-15T06:23:15.152Z,1.00
2017-11-15T06:25:47.158Z,0.90
2017-11-15T06:28:18.969Z,0.90
2017-11-15T06:30:50.962Z,0.87
2017-11-15T06:33:22.635Z,0.73
2017-11-15T06:35:55.102Z,0.90
2017-11-15T06:38:26.970Z,0.70
2017-11-15T06:40:58.401Z,0.80
2017-11-15T06:43:33.602Z,1.00
2017-11-15T06:46:04.962Z,0.90
2017-11-15T06:48:36.311Z,0.80
2017-11-15T06:51:07.764Z,0.70
2017-11-15T06:53:39.307Z,0.80
2017-11-15T06:56:12.345Z,1.03
2017-11-15T06:58:45.285Z,0.90
2017-11-15T07:01:16.713Z,1.20
2017-11-15T07:03:50.092Z,0.87
2017-11-15T07:06:22.793Z,0.70
2017-11-15T07:08:54.237Z,1.00
2017-11-15T07:11:27.700Z,0.80
2017-11-15T07:14:00.651Z,0.80
2017-11-15T07:16:32.926Z,0.80
2017-11-15T07:19:05.430Z,0.70
2017-11-15T07:21:36.977Z,0.70
2017-11-15T07:24:09.635Z,1.00
2017-11-15T07:26:40.849Z,0.90
2017-11-15T07:29:13.047Z,0.90
2017-11-15T07:31:44.792Z,0.93
2017-11-15T07:34:17.183Z,0.83
2017-11-15T07:36:49.552Z,1.00
2017-11-15T07:39:21.622Z,1.07
2017-11-15T07:41:53.393Z,0.90
2017-11-15T07:44:25.491Z,0.90
2017-11-15T07:46:58.451Z,0.83
2017-11-15T07:49:31.144Z,0.83
2017-11-15T07:52:03.226Z,0.90
2017-11-15T07:54:35.053Z,0.90
2017-11-15T07:57:06.717Z,0.93
2017-11-15T07:59:38.392Z,0.80
2017-11-15T08:02:10.167Z,0.80
2017-11-15T08:04:42.103Z,1.00
2017-11-15T08:07:14.267Z,0.90
2017-11-15T08:09:46.444Z,0.90
2017-11-15T08:12:18.107Z,1.00
2017-11-15T08:14:49.398Z,0.87
2017-11-15T08:17:22.174Z,0.90
2017-11-15T08:19:53.728Z,0.80
2017-11-15T08:22:25.089Z,0.80
2017-11-15T08:24:56.950Z,0.80
2017-11-15T08:27:28.632Z,0.77
2017-11-15T08:30:00.249Z,0.80
2017-11-15T08:32:33.205Z,0.73
2017-11-15T08:35:06.237Z,0.80
2017-11-15T08:37:39.703Z,0.80
2017-11-15T08:40:12.270Z,1.00
2017-11-15T08:42:47.152Z,0.90
2017-11-15T08:45:19.649Z,0.90
2017-11-15T08:47:53.396Z,0.70
2017-11-15T08:50:26.844Z,0.90
2017-11-15T08:52:58.692Z,0.80
2017-11-15T08:55:31.342Z,0.80
2017-11-15T09:44:52.973Z,0.80
2017-11-15T09:47:24.475Z,0.80
2017-11-15T09:49:57.161Z,0.80
2017-11-15T09:52:29.649Z,0.70
2017-11-15T09:55:01.158Z,0.80
2017-11-15T09:57:33.070Z,0.80
2017-11-15T10:00:04.709Z,0.73
2017-11-15T10:02:36.584Z,0.87
2017-11-15T10:05:08.763Z,0.97
2017-11-15T10:07:40.589Z,0.80
2017-11-15T10:10:12.583Z,0.97
2017-11-15T10:12:44.541Z,1.00
2017-11-15T10:15:16.264Z,0.80
2017-11-15T10:17:48.221Z,0.80
2017-11-15T10:20:20.210Z,0.90
2017-11-15T10:22:52.730Z,0.80
2017-11-15T10:25:23.745Z,0.70
2017-11-15T10:27:54.827Z,0.80
2017-11-15T10:30:26.964Z,0.90
2017-11-15T10:32:58.854Z,0.90
2017-11-15T10:35:30.999Z,0.93
2017-11-15T10:38:02.786Z,0.90
2017-11-15T10:40:35.633Z,1.00
2017-11-15T10:43:07.475Z,0.90
2017-11-15T10:45:39.253Z,0.90
2017-11-15T10:48:11.954Z,0.87
2017-11-15T10:50:43.439Z,0.90
2017-11-15T10:53:14.926Z,0.80
2017-11-15T10:55:46.576Z,1.10
2017-11-15T10:58:19.088Z,0.93
2017-11-15T11:00:53.134Z,0.90
2017-11-15T11:03:25.406Z,0.73
2017-11-15T11:05:57.295Z,0.80
2017-11-15T11:13:35.990Z,1.00
2017-11-15T11:16:07.912Z,0.90
2017-11-15T11:18:40.336Z,0.80
2017-11-15T11:21:11.677Z,0.70
2017-11-15T11:23:43.264Z,1.00
2017-11-15T11:26:14.336Z,0.93
2017-11-15T11:28:46.055Z,0.90
2017-11-15T11:31:17.725Z,0.90
2017-11-15T11:33:49.395Z,0.90
2017-11-15T11:36:22.293Z,0.90
2017-11-15T11:38:54.289Z,0.80
2017-11-15T11:41:25.695Z,0.80
2017-11-15T11:43:57.128Z,0.90
2017-11-15T11:46:29.077Z,0.80
2017-11-15T11:49:02.033Z,0.80
2017-11-15T11:51:33.303Z,0.93
2017-11-15T11:54:05.254Z,0.80
2017-11-15T11:56:36.828Z,1.20
2017-11-15T11:59:08.683Z,0.97
2017-11-15T12:01:40.826Z,1.00
2017-11-15T12:04:11.960Z,1.00
2017-11-15T12:06:43.752Z,0.90
2017-11-15T12:09:18.657Z,1.10
2017-11-15T12:11:50.268Z,1.00
2017-11-15T12:14:23.132Z,0.80
2017-11-15T12:16:54.639Z,0.90
2017-11-15T12:19:26.181Z,0.90
2017-11-15T12:21:58.653Z,1.00
2017-11-15T12:24:31.757Z,0.97
2017-11-15T12:27:06.246Z,0.70
2017-11-15T12:29:38.367Z,0.90
2017-11-15T12:32:10.688Z,0.90
2017-11-15T12:34:45.454Z,0.83
2017-11-15T12:37:19.962Z,0.90
2017-11-15T12:39:51.715Z,1.00
2017-11-15T12:42:22.945Z,0.80
2017-11-15T12:44:56.552Z,0.70
2017-11-15T12:47:29.817Z,0.90
2017-11-15T12:50:02.926Z,0.80
2017-11-15T12:52:34.307Z,0.90
2017-11-15T12:55:05.853Z,0.80
2017-11-15T12:57:37.360Z,0.80
2017-11-15T13:00:14.317Z,0.90
2017-11-15T13:02:47.063Z,1.03
2017-11-15T13:05:19.834Z,1.07
2017-11-15T13:07:51.874Z,1.00
2017-11-15T13:10:23.417Z,0.70
2017-11-15T13:12:55.184Z,0.90
2017-11-15T13:15:30.930Z,0.83
2017-11-15T13:18:06.129Z,0.80
2017-11-15T13:20:41.751Z,0.70
2017-11-15T13:23:12.785Z,1.00
2017-11-15T13:25:45.355Z,0.77
2017-11-15T13:28:16.953Z,0.87
2017-11-15T13:30:48.337Z,1.10
2017-11-15T13:33:21.887Z,0.80
2017-11-15T13:35:53.425Z,0.80
2017-11-15T13:38:28.946Z,1.07
2017-11-15T13:41:02.162Z,0.90
2017-11-15T13:43:34.998Z,1.00
2017-11-15T13:46:07.355Z,0.80
2017-11-15T13:48:38.394Z,0.87
2017-11-15T13:51:11.838Z,0.70
2017-11-15T13:53:43.057Z,0.90
2017-11-15T13:56:15.160Z,0.80
2017-11-15T13:58:46.562Z,0.70
2017-11-15T14:01:19.752Z,0.80
2017-11-15T14:03:55.215Z,0.90
2017-11-15T14:06:28.234Z,0.80
2017-11-15T14:08:59.561Z,0.80
2017-11-15T14:11:34.739Z,0.80
2017-11-15T14:14:08.429Z,0.83
2017-11-15T14:16:40.070Z,0.90
2017-11-15T14:19:12.353Z,0.80
2017-11-15T14:21:44.714Z,0.90
2017-11-15T14:24:18.236Z,0.80
2017-11-15T14:26:51.120Z,0.80
2017-11-15T14:29:24.414Z,0.90
2017-11-15T14:31:55.812Z,0.80
2017-11-15T14:34:27.995Z,0.87
2017-11-15T14:36:59.582Z,0.80
2017-11-15T14:39:31.870Z,0.80
2017-11-15T14:42:04.820Z,0.80
2017-11-15T14:44:37.116Z,0.80
2017-11-15T14:47:09.821Z,0.90
2017-11-15T14:49:44.949Z,0.90
2017-11-15T14:52:17.857Z,0.90
2017-11-15T14:54:50.052Z,0.90
2017-11-15T14:57:25.605Z,0.80
2017-11-15T15:00:17.270Z,0.80
2017-11-15T15:02:48.824Z,0.80
2017-11-15T15:05:20.877Z,0.80
2017-11-15T15:07:52.735Z,0.90
2017-11-15T15:10:26.223Z,0.90
2017-11-15T15:12:57.644Z,0.93
2017-11-15T15:15:29.560Z,0.73
2017-11-15T15:18:04.084Z,0.80
2017-11-15T15:20:36.420Z,0.70
2017-11-15T15:25:59.956Z,0.83
2017-11-15T15:28:31.829Z,0.80
2017-11-15T15:31:06.490Z,0.80
2017-11-15T15:33:39.080Z,0.87
2017-11-15T15:36:20.211Z,0.80
2017-11-15T15:38:54.194Z,0.80
2017-11-15T15:41:29.474Z,0.90
2017-11-15T15:44:07.770Z,0.90
2017-11-15T15:46:41.218Z,1.03
2017-11-15T15:49:14.115Z,1.03
2017-11-15T15:51:52.169Z,0.70
2017-11-15T15:54:31.380Z,0.90
2017-11-15T15:57:07.721Z,0.93
2017-11-15T15:59:48.006Z,0.80
2017-11-15T16:02:29.877Z,0.70
2017-11-15T16:05:09.976Z,0.90
2017-11-15T16:07:45.346Z,0.90
2017-11-15T16:10:41.869Z,0.90
2017-11-15T16:16:06.140Z,0.60
2017-11-15T16:19:07.735Z,0.70
2017-11-15T16:21:42.385Z,0.90
2017-11-15T16:24:20.119Z,0.70
2017-11-15T16:26:55.824Z,0.97
2017-11-15T16:29:32.328Z,0.80
2017-11-15T16:32:04.292Z,0.90
2017-11-15T16:34:37.616Z,0.87
2017-11-15T16:37:12.918Z,0.90
2017-11-15T16:39:57.857Z,0.87
2017-11-15T16:42:32.544Z,0.80
2017-11-15T16:45:09.078Z,1.00
2017-11-15T16:50:20.386Z,0.80
2017-11-15T16:52:52.647Z,0.90
2017-11-15T16:55:24.337Z,1.00
2017-11-15T16:57:55.590Z,0.90
2017-11-15T17:00:31.888Z,0.80
2017-11-15T17:03:06.488Z,0.90
2017-11-15T17:05:44.605Z,0.90
2017-11-15T17:08:16.658Z,0.97
2017-11-15T17:10:52.712Z,0.90
2017-11-15T17:13:25.052Z,0.90
2017-11-15T17:15:56.834Z,0.80
2017-11-15T17:18:36.530Z,0.80
2017-11-15T17:21:14.850Z,0.90
2017-11-15T17:23:50.230Z,1.57
2017-11-15T17:26:22.679Z,0.90
2017-11-15T17:28:58.128Z,0.80
2017-11-15T17:31:32.100Z,0.90
2017-11-15T17:34:09.914Z,1.00
2017-11-15T17:36:42.039Z,0.87
2017-11-15T17:39:44.170Z,1.13
2017-11-15T17:42:30.381Z,0.80
2017-11-15T17:45:10.745Z,0.80
2017-11-15T17:47:44.747Z,1.03
2017-11-15T17:50:20.570Z,0.80
2017-11-15T17:52:53.284Z,0.90
2017-11-15T17:55:28.766Z,1.00
2017-11-15T17:58:01.747Z,1.00
2017-11-15T18:00:39.311Z,1.10
2017-11-15T18:03:17.588Z,1.10
2017-11-15T18:08:39.055Z,1.10
2017-11-15T18:11:20.783Z,1.10
2017-11-15T18:13:57.859Z,1.00
2017-11-15T18:16:46.560Z,0.90
2017-11-15T18:19:26.285Z,1.20
2017-11-15T18:23:16.385Z,1.10
2017-11-15T18:26:01.099Z,1.20
2017-11-15T18:28:37.795Z,1.20
2017-11-15T18:31:18.057Z,1.37
2017-11-15T18:33:52.610Z,1.20
2017-11-15T18:36:27.581Z,1.30
2017-11-15T18:38:59.924Z,1.47
2017-11-15T18:41:32.399Z,1.20
2017-11-15T18:44:07.607Z,1.33
2017-11-15T18:46:46.091Z,1.20
2017-11-15T18:49:19.826Z,1.20
2017-11-15T18:51:59.363Z,1.40
2017-11-15T18:54:44.432Z,1.20
2017-11-15T18:57:25.636Z,1.10
2017-11-15T18:59:58.314Z,1.40
2017-11-15T19:02:30.760Z,1.20
2017-11-15T19:05:03.308Z,1.23
2017-11-15T19:07:37.424Z,1.50
2017-11-15T19:10:18.290Z,1.30
2017-11-15T19:12:55.004Z,1.40
2017-11-15T19:15:31.225Z,1.23
2017-11-15T19:18:06.723Z,2.67
2017-11-15T19:20:40.213Z,1.63
2017-11-15T19:23:20.530Z,1.40
2017-11-15T19:25:52.457Z,1.57
2017-11-15T19:28:25.175Z,1.40
2017-11-15T19:30:58.679Z,1.83
2017-11-15T19:33:32.331Z,1.60
2017-11-15T19:36:07.218Z,1.47
2017-11-15T19:38:59.758Z,1.40
2017-11-15T19:41:44.806Z,1.50
2017-11-15T19:44:28.022Z,1.70
2017-11-15T19:47:00.982Z,1.67
2017-11-15T19:49:36.635Z,1.60
2017-11-15T19:52:08.722Z,1.90
2017-11-15T19:54:45.245Z,2.53
2017-11-15T19:57:24.073Z,1.87
2017-11-15T20:00:13.948Z,1.73
2017-11-15T20:02:50.112Z,2.00
2017-11-15T20:05:28.006Z,2.20
2017-11-15T20:08:00.597Z,2.40
2017-11-15T20:10:33.074Z,2.20
2017-11-15T20:13:10.011Z,2.13
2017-11-15T20:15:42.336Z,2.70
2017-11-15T20:18:15.381Z,3.03
2017-11-15T20:20:54.040Z,2.60
2017-11-15T20:23:30.539Z,2.90
2017-11-15T20:26:04.638Z,2.40
2017-11-15T20:28:46.469Z,2.70
2017-11-15T20:31:22.418Z,3.50
2017-11-15T20:34:01.032Z,3.43
2017-11-15T20:36:35.625Z,3.77
2017-11-15T20:39:14.779Z,3.67
2017-11-15T20:41:54.359Z,4.00
2017-11-15T20:44:33.992Z,4.10
2017-11-15T20:47:07.329Z,4.07
2017-11-15T20:49:41.915Z,3.97
2017-11-15T20:52:17.527Z,3.30
2017-11-15T20:57:48.657Z,3.77
2017-11-15T21:00:32.132Z,4.20
2017-11-15T21:05:44.866Z,4.37
2017-11-15T21:08:22.888Z,5.70
2017-11-15T21:11:14.557Z,8.43
2017-11-15T21:13:56.797Z,11.97
2017-11-15T21:16:38.354Z,14.50
2017-11-15T21:19:10.047Z,17.60
2017-11-15T21:21:44.576Z,18.33
2017-11-15T21:24:17.387Z,19.93
2017-11-15T21:26:48.892Z,19.13
2017-11-15T21:29:22.367Z,20.77
2017-11-15T21:31:54.248Z,19.60
2017-11-15T21:34:28.998Z,16.80
2017-11-15T21:37:00.747Z,17.70
2017-11-15T21:39:34.045Z,17.13
2017-11-15T21:42:07.068Z,15.43
2017-11-15T21:44:46.776Z,15.47
2017-11-15T21:47:19.661Z,15.10
2017-11-15T21:50:00.265Z,14.60
2017-11-15T21:52:37.842Z,13.90
2017-11-15T21:55:18.432Z,13.50
2017-11-15T21:57:50.020Z,13.23
2017-11-15T22:00:23.422Z,12.10
2017-11-15T22:02:57.961Z,10.40
2017-11-15T22:05:36.260Z,13.17
2017-11-15T22:08:12.877Z,11.47
2017-11-15T22:10:44.215Z,11.23
2017-11-15T22:13:16.478Z,13.97
2017-11-15T22:15:54.642Z,12.13
2017-11-15T22:18:29.287Z,12.43
2017-11-15T22:21:11.184Z,12.00
2017-11-15T22:23:44.000Z,11.33
2017-11-15T22:26:19.563Z,12.53
2017-11-15T22:28:53.735Z,11.00
2017-11-15T22:31:30.905Z,11.23
2017-11-15T22:34:06.025Z,11.90
2017-11-15T22:36:37.478Z,11.17
2017-11-15T22:39:08.737Z,11.07
2017-11-15T22:41:40.250Z,11.17
2017-11-15T22:44:12.415Z,11.00
2017-11-15T22:46:43.724Z,10.63
2017-11-15T22:49:15.560Z,10.20
2017-11-15T22:51:50.552Z,9.60
2017-11-15T22:54:22.390Z,9.60
2017-11-15T22:56:54.426Z,10.47
2017-11-15T22:59:26.337Z,8.40
2017-11-15T23:01:58.593Z,8.80
2017-11-15T23:04:31.108Z,10.30
2017-11-15T23:07:02.511Z,9.20
2017-11-15T23:09:39.046Z,9.80
2017-11-15T23:12:12.337Z,9.60
2017-11-15T23:14:47.666Z,10.40
2017-11-15T23:17:19.725Z,11.00
2017-11-15T23:22:50.425Z,8.60
2017-11-15T23:25:22.333Z,9.27
2017-11-15T23:27:55.068Z,8.67
2017-11-15T23:30:32.095Z,8.13
2017-11-15T23:33:05.993Z,9.73
2017-11-15T23:35:41.882Z,9.00
2017-11-15T23:38:25.434Z,8.80
2017-11-15T23:40:58.619Z,7.63
2017-11-15T23:43:33.612Z,8.93
2017-11-15T23:59:16.427Z,7.47
